Ana Sayfa
METAR-TAF:

METAR-TAF

Havaalanları :

Cortez, Colorado, Amerika Birleşik Devletleri

Enlem: 37-18-23N, Boylam: 108-37-32W, yükseklik: 1803 m

Güncel hava durumu gözlemi

Rapor saat 00:53 UTC de 39 dakika önce yapıldı.
Rüzgar doğu/kuzeydoğudan 20 kt ve 26 kt'a kadar ani rüzgarlar
Sıcaklık 31°C
Nem 21%
Basınç 1025 hPa
Görüş mesafesi: 16.1 km
Açık gökyüzü

METAR: KCEZ 140053Z AUTO 07020G26KT 10SM CLR 31/06 A3026 RMK AO2 PK WND 07026/0052 SLP162 T03060056

Saat: 19:32 (01:32 UTC)


TAF: eksik

4.000'den fazla havaalanı için hava durumu gözlemleri ve tahminleri (METAR ve TAF raporları).

Kullanılabilir istasyonlar harita üzerinde sarı ve kırmızı noktalarla gösterilir.

İstasyonun adını görmek için fareyi noktanın üzerinde gezdirin.

Sonrasında hava gözlem ve tahminlerini görmek için tıklayın.

Haritayı değiştirmek için: yaklaştırmak için siyah artı işaretli yeşil düğmeye ve uzaklaştırmak için de eksi işaretli düğmeye hızla tıklayın; bitişik haritalar için yeşil okları kullanın.


METAR-TAF: